createdAt,value
2019-04-25T00:01:18.846Z,47.06
2019-04-25T00:03:46.632Z,47.13
2019-04-25T00:06:13.615Z,47.07
2019-04-25T00:08:41.320Z,47.22
2019-04-25T00:11:11.590Z,47.07
2019-04-25T00:13:39.629Z,47.19
2019-04-25T00:16:06.914Z,47.15
2019-04-25T00:18:33.833Z,47.33
2019-04-25T00:21:02.309Z,47.37
2019-04-25T00:23:29.218Z,47.40
2019-04-25T00:26:01.370Z,47.25
2019-04-25T00:28:28.436Z,47.43
2019-04-25T00:30:55.401Z,47.43
2019-04-25T00:33:22.361Z,47.47
2019-04-25T00:35:49.621Z,47.39
2019-04-25T00:38:17.031Z,47.44
2019-04-25T00:40:44.661Z,47.45
2019-04-25T00:43:11.642Z,47.61
2019-04-25T00:45:38.542Z,47.45
2019-04-25T00:48:05.532Z,47.48
2019-04-25T00:50:32.399Z,47.51
2019-04-25T00:52:59.291Z,47.46
2019-04-25T00:55:28.898Z,47.56
2019-04-25T00:57:56.450Z,47.63
2019-04-25T01:00:24.940Z,47.65
2019-04-25T01:02:56.405Z,47.63
2019-04-25T01:05:23.442Z,47.73
2019-04-25T01:07:52.162Z,47.63
2019-04-25T01:10:19.548Z,47.74
2019-04-25T01:12:46.382Z,47.69
2019-04-25T01:15:14.692Z,47.72
2019-04-25T01:17:41.672Z,47.74
2019-04-25T01:20:08.842Z,47.80
2019-04-25T01:22:35.799Z,47.72
2019-04-25T01:25:03.770Z,47.78
2019-04-25T01:27:30.873Z,47.80
2019-04-25T01:29:57.709Z,47.81
2019-04-25T01:32:26.166Z,47.80
2019-04-25T01:34:58.587Z,47.87
2019-04-25T01:37:27.742Z,47.82
2019-04-25T01:39:56.251Z,47.89
2019-04-25T01:42:24.727Z,47.95
2019-04-25T01:44:53.862Z,47.94
2019-04-25T01:47:23.880Z,47.95
2019-04-25T01:49:50.686Z,47.90
2019-04-25T01:52:18.434Z,47.92
2019-04-25T01:54:45.372Z,47.92
2019-04-25T01:57:14.220Z,47.97
2019-04-25T01:59:41.205Z,47.95
2019-04-25T02:02:09.750Z,48.01
2019-04-25T02:04:36.782Z,48.00
2019-04-25T02:07:04.468Z,47.96
2019-04-25T02:09:31.361Z,48.03
2019-04-25T02:12:05.653Z,47.99
2019-04-25T02:14:33.655Z,47.97
2019-04-25T02:17:00.777Z,48.02
2019-04-25T02:19:28.264Z,48.09
2019-04-25T02:21:55.684Z,48.05
2019-04-25T02:24:23.703Z,48.08
2019-04-25T02:26:50.693Z,48.09
2019-04-25T02:29:17.605Z,48.14
2019-04-25T02:31:45.168Z,48.14
2019-04-25T02:34:15.237Z,48.21
2019-04-25T02:36:40.738Z,48.07
2019-04-25T02:39:09.091Z,48.14
2019-04-25T02:41:36.135Z,48.18
2019-04-25T02:44:09.249Z,48.30
2019-04-25T02:46:37.183Z,48.18
2019-04-25T02:49:09.705Z,48.23
2019-04-25T02:51:41.398Z,48.20
2019-04-25T02:54:08.385Z,48.14
2019-04-25T02:56:38.687Z,48.24
2019-04-25T02:59:06.971Z,48.22
2019-04-25T03:01:34.222Z,48.18
2019-04-25T03:04:01.323Z,48.17
2019-04-25T03:06:28.859Z,48.20
2019-04-25T03:08:57.814Z,48.20
2019-04-25T03:11:24.652Z,48.29
2019-04-25T03:13:54.350Z,48.26
2019-04-25T03:16:20.163Z,48.22
2019-04-25T03:19:08.267Z,48.29
2019-04-25T03:21:37.477Z,48.30
2019-04-25T03:24:09.078Z,48.30
2019-04-25T03:26:40.026Z,48.33
2019-04-25T03:29:03.880Z,48.31
2019-04-25T03:31:30.917Z,48.34
2019-04-25T03:33:57.915Z,48.33
2019-04-25T03:36:24.811Z,48.26
2019-04-25T03:38:51.629Z,48.33
2019-04-25T03:41:18.574Z,48.29
2019-04-25T03:43:45.452Z,48.31
2019-04-25T03:46:14.101Z,48.31
2019-04-25T03:48:41.157Z,48.31
2019-04-25T03:51:08.086Z,48.30
2019-04-25T03:53:34.974Z,48.30
2019-04-25T03:56:02.749Z,48.32
2019-04-25T03:58:30.583Z,48.31
2019-04-25T04:00:57.390Z,48.30
2019-04-25T04:03:24.271Z,48.35
2019-04-25T04:05:51.163Z,48.33
2019-04-25T04:08:18.014Z,48.35
2019-04-25T04:10:44.953Z,48.33
2019-04-25T04:13:12.273Z,48.39
2019-04-25T04:15:39.296Z,48.36
2019-04-25T04:18:10.715Z,48.41
2019-04-25T04:20:45.423Z,48.47
2019-04-25T04:23:25.962Z,48.43
2019-04-25T04:25:53.068Z,48.44
2019-04-25T04:28:21.422Z,48.46
2019-04-25T04:30:48.258Z,48.51
2019-04-25T04:33:25.787Z,48.49
2019-04-25T04:35:44.146Z,48.50
2019-04-25T04:38:11.666Z,48.52
2019-04-25T04:40:38.720Z,48.51
2019-04-25T04:43:05.808Z,48.55
2019-04-25T04:45:34.392Z,48.56
2019-04-25T04:48:03.210Z,48.54
2019-04-25T04:50:30.305Z,48.55
2019-04-25T04:52:57.357Z,48.56
2019-04-25T04:55:24.393Z,48.60
2019-04-25T04:57:51.399Z,48.61
2019-04-25T05:00:18.668Z,48.59
2019-04-25T05:02:53.412Z,48.60
2019-04-25T05:05:24.934Z,48.63
2019-04-25T05:08:05.419Z,48.65
2019-04-25T05:10:33.268Z,48.65
2019-04-25T05:13:00.416Z,48.63
2019-04-25T05:15:27.347Z,48.68
2019-04-25T05:17:54.416Z,48.62
2019-04-25T05:20:22.168Z,48.69
2019-04-25T05:22:49.245Z,48.69
2019-04-25T05:25:17.636Z,48.70
2019-04-25T05:27:58.560Z,48.74
2019-04-25T05:30:16.606Z,48.68
2019-04-25T05:32:44.204Z,48.67
2019-04-25T05:35:11.326Z,48.67
2019-04-25T05:37:38.262Z,48.68
2019-04-25T05:40:05.661Z,48.76
2019-04-25T05:42:54.274Z,48.74
2019-04-25T05:45:31.636Z,48.73
2019-04-25T05:47:58.652Z,48.76
2019-04-25T05:50:27.267Z,48.76
2019-04-25T05:52:55.374Z,48.78
2019-04-25T05:55:23.882Z,48.82
2019-04-25T05:57:51.127Z,48.76
2019-04-25T06:00:18.959Z,48.80
2019-04-25T06:02:46.266Z,48.75
2019-04-25T06:05:13.394Z,48.80
2019-04-25T06:07:40.311Z,48.82
2019-04-25T06:10:25.721Z,48.75
2019-04-25T06:13:13.900Z,48.76
2019-04-25T06:15:43.288Z,48.77
2019-04-25T06:18:30.010Z,48.75
2019-04-25T06:20:56.878Z,48.75
2019-04-25T06:23:26.852Z,48.77
2019-04-25T06:25:53.903Z,48.81
2019-04-25T06:28:28.473Z,48.79
2019-04-25T06:30:55.392Z,48.74
2019-04-25T06:33:24.683Z,48.77
2019-04-25T06:35:51.926Z,48.79
2019-04-25T06:38:18.811Z,48.79
2019-04-25T06:40:45.696Z,48.79
2019-04-25T06:43:13.481Z,48.87
2019-04-25T06:45:44.970Z,48.78
2019-04-25T06:48:20.328Z,48.79
2019-04-25T06:50:48.108Z,48.79
2019-04-25T06:53:16.230Z,48.82
2019-04-25T06:55:53.533Z,48.83
2019-04-25T06:58:21.417Z,48.86
2019-04-25T07:00:58.779Z,48.83
2019-04-25T07:03:20.781Z,48.84
2019-04-25T07:05:47.773Z,48.87
2019-04-25T07:08:14.687Z,48.92
2019-04-25T07:10:41.608Z,48.92
2019-04-25T07:13:08.412Z,48.95
2019-04-25T07:15:35.338Z,48.95
2019-04-25T07:18:03.805Z,48.94
2019-04-25T07:20:30.891Z,48.93
2019-04-25T07:22:57.764Z,48.99
2019-04-25T07:25:27.259Z,48.96
2019-04-25T07:28:23.812Z,48.95
2019-04-25T07:30:50.126Z,48.98
2019-04-25T07:33:16.154Z,48.99
2019-04-25T07:35:43.456Z,49.03
2019-04-25T07:38:10.459Z,48.97
2019-04-25T07:40:37.401Z,49.02
2019-04-25T07:43:04.868Z,48.92
2019-04-25T07:45:33.692Z,48.99
2019-04-25T07:48:00.520Z,48.95
2019-04-25T07:50:28.504Z,48.99
2019-04-25T07:52:55.666Z,49.01
2019-04-25T07:55:23.355Z,49.12
2019-04-25T07:57:50.314Z,48.97
2019-04-25T08:00:17.148Z,49.09
2019-04-25T08:02:44.022Z,48.99
2019-04-25T08:05:11.302Z,48.95
2019-04-25T08:07:38.136Z,48.84
2019-04-25T08:10:05.048Z,48.88
2019-04-25T08:12:32.860Z,49.38
2019-04-25T08:15:04.992Z,49.27
2019-04-25T08:17:49.620Z,45.33
2019-04-25T08:20:16.527Z,44.45
2019-04-25T08:22:55.737Z,43.58
2019-04-25T08:25:13.703Z,42.20
2019-04-25T08:27:40.405Z,42.36
2019-04-25T08:30:07.344Z,41.79
2019-04-25T08:32:35.527Z,41.70
2019-04-25T08:35:03.833Z,40.65
2019-04-25T08:37:31.707Z,41.20
2019-04-25T08:39:58.657Z,41.24
2019-04-25T08:42:25.508Z,41.08
2019-04-25T08:44:53.451Z,41.40
2019-04-25T08:47:20.471Z,41.44
2019-04-25T08:49:49.611Z,42.08
2019-04-25T08:52:16.591Z,41.42
2019-04-25T08:54:50.871Z,41.46
2019-04-25T08:57:23.629Z,41.66
2019-04-25T08:59:53.021Z,41.44
2019-04-25T09:02:24.464Z,41.77
2019-04-25T09:04:55.731Z,41.86
2019-04-25T09:07:23.572Z,41.87
2019-04-25T09:09:50.424Z,41.77
2019-04-25T09:12:17.204Z,41.51
2019-04-25T09:14:46.300Z,42.53
2019-04-25T09:17:14.175Z,41.53
2019-04-25T09:19:41.989Z,41.59
2019-04-25T09:22:08.858Z,41.22
2019-04-25T09:24:36.838Z,42.13
2019-04-25T09:27:04.126Z,42.92
2019-04-25T09:29:30.894Z,43.04
2019-04-25T09:31:57.697Z,43.24
2019-04-25T09:34:24.481Z,43.69
2019-04-25T09:36:51.308Z,44.23
2019-04-25T09:39:19.722Z,44.22
2019-04-25T09:41:46.494Z,46.58
2019-04-25T09:44:14.928Z,46.54
2019-04-25T09:46:41.868Z,47.69
2019-04-25T09:49:23.829Z,47.92
2019-04-25T09:51:53.434Z,47.99
2019-04-25T09:54:40.397Z,48.55
2019-04-25T09:57:08.815Z,48.65
2019-04-25T09:59:37.391Z,48.48
2019-04-25T10:02:04.688Z,47.87
2019-04-25T10:04:34.492Z,47.61
2019-04-25T10:06:59.978Z,47.97
2019-04-25T10:09:26.785Z,48.40
2019-04-25T10:11:54.639Z,48.66
2019-04-25T10:14:21.717Z,48.74
2019-04-25T10:16:48.511Z,48.94
2019-04-25T10:19:15.315Z,48.79
2019-04-25T10:21:42.089Z,47.44
2019-04-25T10:24:08.984Z,48.32
2019-04-25T10:26:35.817Z,48.00
2019-04-25T10:29:03.379Z,48.83
2019-04-25T10:31:30.179Z,49.00
2019-04-25T10:33:56.972Z,48.82
2019-04-25T10:36:24.638Z,48.66
2019-04-25T10:39:04.318Z,48.50
2019-04-25T10:41:20.083Z,48.55
2019-04-25T10:43:46.926Z,48.40
2019-04-25T10:46:14.917Z,48.40
2019-04-25T10:48:42.031Z,48.31
2019-04-25T10:51:08.812Z,48.23
2019-04-25T10:53:35.587Z,48.17
2019-04-25T10:56:05.549Z,48.17
2019-04-25T10:58:30.885Z,48.09
2019-04-25T11:00:57.840Z,48.04
2019-04-25T11:03:38.205Z,48.00
2019-04-25T11:06:05.041Z,47.97
2019-04-25T11:08:31.824Z,47.96
2019-04-25T11:10:58.935Z,47.92
2019-04-25T11:13:25.734Z,47.85
2019-04-25T11:15:52.511Z,47.85
2019-04-25T11:18:19.382Z,47.82
2019-04-25T11:20:46.240Z,47.77
2019-04-25T11:23:13.965Z,47.79
2019-04-25T11:25:41.564Z,47.74
2019-04-25T11:28:08.634Z,47.72
2019-04-25T11:30:35.423Z,47.70
2019-04-25T11:33:03.611Z,47.70
2019-04-25T11:35:30.666Z,47.66
2019-04-25T11:37:59.056Z,47.70
2019-04-25T11:40:27.494Z,47.71
2019-04-25T11:42:54.656Z,47.72
2019-04-25T11:45:21.522Z,47.70
2019-04-25T11:47:48.438Z,47.70
2019-04-25T11:50:15.271Z,47.70
2019-04-25T11:52:43.641Z,47.68
2019-04-25T11:55:10.583Z,47.67
2019-04-25T11:57:37.336Z,47.64
2019-04-25T12:00:04.343Z,47.70
2019-04-25T12:02:31.235Z,47.65
2019-04-25T12:04:58.019Z,47.63
2019-04-25T12:07:25.038Z,47.65
2019-04-25T12:09:52.232Z,47.62
2019-04-25T12:12:19.208Z,47.63
2019-04-25T12:14:46.392Z,47.60
2019-04-25T12:17:13.578Z,47.61
2019-04-25T12:19:40.350Z,47.55
2019-04-25T12:22:07.130Z,47.58
2019-04-25T12:24:33.904Z,47.56
2019-04-25T12:27:00.705Z,47.55
2019-04-25T12:29:27.496Z,47.53
2019-04-25T12:31:54.922Z,47.53
2019-04-25T12:34:21.760Z,47.53
2019-04-25T12:36:48.542Z,47.52
2019-04-25T12:39:15.606Z,47.53
2019-04-25T12:41:44.236Z,47.52
2019-04-25T12:44:12.532Z,47.52
2019-04-25T12:46:43.877Z,47.52
2019-04-25T12:49:10.664Z,47.53
2019-04-25T12:51:37.452Z,47.50
2019-04-25T12:54:04.225Z,47.49
2019-04-25T12:56:31.078Z,47.49
2019-04-25T12:58:57.874Z,47.51
2019-04-25T13:01:24.962Z,47.50
2019-04-25T13:03:51.819Z,47.51
2019-04-25T13:06:18.594Z,47.52
2019-04-25T13:08:45.379Z,47.52
2019-04-25T13:11:13.864Z,47.52
2019-04-25T13:13:40.722Z,47.53
2019-04-25T13:16:07.785Z,47.48
2019-04-25T13:18:34.630Z,47.50
2019-04-25T13:21:01.467Z,47.53
2019-04-25T13:23:28.250Z,47.54
2019-04-25T13:25:55.841Z,47.53
2019-04-25T13:28:27.472Z,47.53
2019-04-25T13:31:12.370Z,47.54
2019-04-25T13:33:38.128Z,47.56
2019-04-25T13:36:15.539Z,47.58
2019-04-25T13:38:43.626Z,47.52
2019-04-25T13:41:10.819Z,47.53
2019-04-25T13:43:37.764Z,47.56
2019-04-25T13:46:04.536Z,47.53
2019-04-25T13:48:32.288Z,47.56
2019-04-25T13:50:59.184Z,47.55
2019-04-25T13:53:26.043Z,47.59
2019-04-25T13:55:52.818Z,47.55
2019-04-25T13:58:19.935Z,47.61
2019-04-25T14:00:47.085Z,47.58
2019-04-25T14:03:13.874Z,47.57
2019-04-25T14:05:40.839Z,47.54
2019-04-25T14:08:07.638Z,47.59
2019-04-25T14:10:34.467Z,47.55
2019-04-25T14:13:01.394Z,47.58
2019-04-25T14:15:29.644Z,47.60
2019-04-25T14:18:13.790Z,47.59
2019-04-25T14:20:45.314Z,47.59
2019-04-25T14:23:13.479Z,47.57
2019-04-25T14:25:40.743Z,47.61
2019-04-25T14:28:08.010Z,47.60
2019-04-25T14:30:35.964Z,47.58
2019-04-25T14:33:03.626Z,47.60
2019-04-25T14:35:31.158Z,47.58
2019-04-25T14:37:58.026Z,47.59
2019-04-25T14:40:25.867Z,47.57
2019-04-25T14:42:53.742Z,47.57
2019-04-25T14:45:21.553Z,47.61
2019-04-25T14:47:49.379Z,47.59
2019-04-25T14:50:16.182Z,47.59
2019-04-25T14:52:42.944Z,47.61
2019-04-25T14:55:27.651Z,47.57
2019-04-25T14:57:54.831Z,47.58
2019-04-25T15:00:26.147Z,47.57
2019-04-25T15:02:54.232Z,47.62
2019-04-25T15:05:21.117Z,47.59
2019-04-25T15:07:48.305Z,47.60
2019-04-25T15:10:15.177Z,47.60
2019-04-25T15:12:41.958Z,47.60
2019-04-25T15:15:08.729Z,47.59
2019-04-25T15:17:45.241Z,47.60
2019-04-25T15:20:04.005Z,47.58
2019-04-25T15:22:30.798Z,47.60
2019-04-25T15:24:57.579Z,47.59
2019-04-25T15:27:25.112Z,47.62
2019-04-25T15:29:52.114Z,47.62
2019-04-25T15:32:20.530Z,47.60
2019-04-25T15:34:54.942Z,47.60
2019-04-25T15:37:35.381Z,47.62
2019-04-25T15:40:03.803Z,47.61
2019-04-25T15:42:38.862Z,47.61
2019-04-25T15:45:16.466Z,47.65
2019-04-25T15:47:45.450Z,47.61
2019-04-25T15:50:12.136Z,47.61
2019-04-25T15:52:39.105Z,47.65
2019-04-25T15:55:07.362Z,47.61
2019-04-25T15:57:34.545Z,47.61
2019-04-25T16:00:01.472Z,47.60
2019-04-25T16:02:28.775Z,47.60
2019-04-25T16:04:55.762Z,47.59
2019-04-25T16:07:22.899Z,47.54
2019-04-25T16:09:49.694Z,47.59
2019-04-25T16:12:16.833Z,47.59
2019-04-25T16:14:43.643Z,47.58
2019-04-25T16:17:10.489Z,47.63
2019-04-25T16:19:37.283Z,47.59
2019-04-25T16:22:04.225Z,47.61
2019-04-25T16:24:31.118Z,47.59
2019-04-25T16:26:58.862Z,47.32
2019-04-25T16:29:25.652Z,46.43
2019-04-25T16:31:52.516Z,45.57
2019-04-25T16:34:19.288Z,45.89
2019-04-25T16:36:46.076Z,46.06
2019-04-25T16:39:20.530Z,46.34
2019-04-25T16:41:47.391Z,46.57
2019-04-25T16:44:15.847Z,46.70
2019-04-25T16:46:42.740Z,46.77
2019-04-25T16:49:09.560Z,46.85
2019-04-25T16:51:36.338Z,46.96
2019-04-25T16:54:03.122Z,46.96
2019-04-25T16:56:30.589Z,47.00
2019-04-25T16:58:57.471Z,47.01
2019-04-25T17:01:24.228Z,47.02
2019-04-25T17:03:51.013Z,47.02
2019-04-25T17:06:17.827Z,47.03
2019-04-25T17:08:44.680Z,47.09
2019-04-25T17:11:11.734Z,47.07
2019-04-25T17:13:40.142Z,47.07
2019-04-25T17:16:14.323Z,47.14
2019-04-25T17:18:48.718Z,47.13
2019-04-25T17:21:15.573Z,47.15
2019-04-25T17:23:42.368Z,47.16
2019-04-25T17:26:09.585Z,47.20
2019-04-25T17:28:39.079Z,47.20
2019-04-25T17:31:16.712Z,47.22
2019-04-25T17:34:03.265Z,47.22
2019-04-25T17:36:33.177Z,47.23
2019-04-25T17:39:01.821Z,47.28
2019-04-25T17:41:28.752Z,47.24
2019-04-25T17:43:55.542Z,47.25
2019-04-25T17:46:23.621Z,47.29
2019-04-25T17:48:50.399Z,47.25
2019-04-25T17:51:17.190Z,47.30
2019-04-25T17:53:43.966Z,47.29
2019-04-25T17:56:10.773Z,47.23
2019-04-25T17:58:37.549Z,47.22
2019-04-25T18:01:04.323Z,47.22
2019-04-25T18:03:31.102Z,47.25
2019-04-25T18:05:57.877Z,47.38
2019-04-25T18:08:24.924Z,47.37
2019-04-25T18:10:51.684Z,47.38
2019-04-25T18:13:18.481Z,47.38
2019-04-25T18:16:04.976Z,47.36
2019-04-25T18:18:42.141Z,47.39
2019-04-25T18:21:08.918Z,47.34
2019-04-25T18:23:52.188Z,47.35
2019-04-25T18:26:23.590Z,47.35
2019-04-25T18:28:51.991Z,47.32
2019-04-25T18:31:18.783Z,47.34
2019-04-25T18:33:45.970Z,47.32
2019-04-25T18:36:30.394Z,47.25
2019-04-25T18:39:01.713Z,47.00
2019-04-25T18:41:39.780Z,46.76
2019-04-25T18:44:08.228Z,46.92
2019-04-25T18:46:36.999Z,46.19
2019-04-25T18:49:03.884Z,45.91
2019-04-25T18:51:30.678Z,45.22
2019-04-25T18:53:59.100Z,46.31
2019-04-25T18:56:30.441Z,46.38
2019-04-25T18:59:14.921Z,45.87
2019-04-25T19:01:55.323Z,46.03
2019-04-25T19:04:26.417Z,45.86
2019-04-25T19:06:58.023Z,46.31
2019-04-25T19:09:21.682Z,45.78
2019-04-25T19:11:48.458Z,37.91
2019-04-25T19:14:15.254Z,35.87
2019-04-25T19:16:42.951Z,36.17
2019-04-25T19:19:09.902Z,36.98
2019-04-25T19:21:36.673Z,38.05
2019-04-25T19:24:03.511Z,38.78
2019-04-25T19:26:30.282Z,38.17
2019-04-25T19:28:57.067Z,38.73
2019-04-25T19:31:23.901Z,38.78
2019-04-25T19:33:51.702Z,39.01
2019-04-25T19:36:19.350Z,39.52
2019-04-25T19:38:46.333Z,39.71
2019-04-25T19:41:23.970Z,40.31
2019-04-25T19:44:01.704Z,40.71
2019-04-25T19:46:41.221Z,41.52
2019-04-25T19:49:09.587Z,42.01
2019-04-25T19:51:36.409Z,42.37
2019-04-25T19:54:03.189Z,42.65
2019-04-25T19:56:29.997Z,42.87
2019-04-25T19:58:56.841Z,43.00
2019-04-25T20:01:23.814Z,43.16
2019-04-25T20:03:56.822Z,43.32
2019-04-25T20:06:28.376Z,43.51
2019-04-25T20:08:56.873Z,43.58
2019-04-25T20:11:25.355Z,43.73
2019-04-25T20:13:53.302Z,43.84
2019-04-25T20:16:20.139Z,43.93
2019-04-25T20:18:47.715Z,44.06
2019-04-25T20:21:14.632Z,44.09
2019-04-25T20:23:41.424Z,44.23
2019-04-25T20:26:08.314Z,44.31
2019-04-25T20:28:35.103Z,44.43
2019-04-25T20:31:01.941Z,44.53
2019-04-25T20:33:28.725Z,44.56
2019-04-25T20:35:55.528Z,44.70
2019-04-25T20:38:22.371Z,44.76
2019-04-25T20:40:49.583Z,44.91
2019-04-25T20:43:16.557Z,46.36
2019-04-25T20:45:43.363Z,45.76
2019-04-25T20:48:11.153Z,45.67
2019-04-25T20:50:37.951Z,45.73
2019-04-25T20:53:04.786Z,45.79
2019-04-25T20:55:31.590Z,45.78
2019-04-25T20:57:58.462Z,45.94
2019-04-25T21:00:25.547Z,45.96
2019-04-25T21:02:52.402Z,45.92
2019-04-25T21:05:19.164Z,45.99
2019-04-25T21:07:46.071Z,46.03
2019-04-25T21:10:12.917Z,46.05
2019-04-25T21:12:39.742Z,46.12
2019-04-25T21:15:20.069Z,46.19
2019-04-25T21:17:52.082Z,46.20
2019-04-25T21:20:19.132Z,46.21
2019-04-25T21:22:45.928Z,46.26
2019-04-25T21:25:12.870Z,46.33
2019-04-25T21:27:40.280Z,46.34
2019-04-25T21:30:07.332Z,46.34
2019-04-25T21:32:35.836Z,46.43
2019-04-25T21:35:03.047Z,46.60
2019-04-25T21:37:29.858Z,46.51
2019-04-25T21:40:02.534Z,46.49
2019-04-25T21:42:34.286Z,46.51
2019-04-25T21:45:02.469Z,46.61
2019-04-25T21:47:29.661Z,46.57
2019-04-25T21:49:56.788Z,46.66
2019-04-25T21:52:24.002Z,46.68
2019-04-25T21:54:51.103Z,46.68
2019-04-25T21:57:18.175Z,46.72
2019-04-25T21:59:45.127Z,46.73
2019-04-25T22:02:12.751Z,46.69
2019-04-25T22:04:41.748Z,46.68
2019-04-25T22:07:08.373Z,46.74
2019-04-25T22:09:35.527Z,46.84
2019-04-25T22:12:03.198Z,46.84
2019-04-25T22:14:30.077Z,46.82
2019-04-25T22:16:57.667Z,46.85
2019-04-25T22:19:24.951Z,46.90
2019-04-25T22:21:52.033Z,46.90
2019-04-25T22:24:18.910Z,47.01
2019-04-25T22:26:47.461Z,46.94
2019-04-25T22:29:14.369Z,46.97
2019-04-25T22:31:48.619Z,46.98
2019-04-25T22:34:17.069Z,46.97
2019-04-25T22:36:44.147Z,47.04
2019-04-25T22:39:11.666Z,47.06
2019-04-25T22:41:38.744Z,47.07
2019-04-25T22:44:06.476Z,47.03
2019-04-25T22:46:33.543Z,47.15
2019-04-25T22:49:01.348Z,47.24
2019-04-25T22:51:28.198Z,47.15
2019-04-25T22:53:55.356Z,47.15
2019-04-25T22:56:22.139Z,47.21
2019-04-25T22:58:48.902Z,47.23
2019-04-25T23:01:17.724Z,47.23
2019-04-25T23:03:46.171Z,47.28
2019-04-25T23:06:13.247Z,47.36
2019-04-25T23:08:40.061Z,47.38
2019-04-25T23:11:06.925Z,47.30
2019-04-25T23:13:33.773Z,47.33
2019-04-25T23:16:00.836Z,47.39
2019-04-25T23:18:27.680Z,47.45
2019-04-25T23:20:54.490Z,47.46
2019-04-25T23:23:21.571Z,47.36
2019-04-25T23:25:56.024Z,47.43
2019-04-25T23:28:24.853Z,47.45
2019-04-25T23:30:59.521Z,47.59
2019-04-25T23:33:26.457Z,47.47
2019-04-25T23:35:53.347Z,47.49
2019-04-25T23:38:20.263Z,47.56
2019-04-25T23:40:47.149Z,47.57
2019-04-25T23:43:14.359Z,47.62
2019-04-25T23:45:41.180Z,47.70
2019-04-25T23:48:08.349Z,47.69
2019-04-25T23:50:35.199Z,47.70
2019-04-25T23:53:02.011Z,47.71
2019-04-25T23:55:28.901Z,47.75
2019-04-25T23:57:55.677Z,47.76
